Time;durP1;ratioP1;P1;durP2;ratioP2;P2;SDS_P1;SDS_P2;PMS_P1;PMS_P2;Temp;Humidity;BMP_temperature;BMP_pressure;BME280_temperature;BME280_humidity;BME280_pressure;Samples;Min_cycle;Max_cycle;Signal;HPM_P1;HPM_P2
2023/03/16 00:00:51;;;;;;;1.40;0.40;;;4.40;82.40;;;;;;6226305;22;20011;-87
2023/03/16 00:03:19;;;;;;;1.77;0.50;;;4.40;82.50;;;;;;6201562;22;20442;-86
2023/03/16 00:05:47;;;;;;;1.20;0.60;;;4.50;82.60;;;;;;6226338;22;20464;-86
2023/03/16 00:08:16;;;;;;;2.08;0.60;;;4.50;82.60;;;;;;6202007;23;20031;-86
2023/03/16 00:10:46;;;;;;;1.33;0.55;;;4.50;82.60;;;;;;6221105;23;20020;-87
2023/03/16 00:13:17;;;;;;;2.60;0.45;;;4.50;82.60;;;;;;6196033;23;20042;-87
2023/03/16 00:15:59;;;;;;;2.27;0.60;;;4.50;82.60;;;;;;6220866;23;20020;-86
2023/03/16 00:18:37;;;;;;;1.00;0.40;;;4.50;82.70;;;;;;6220805;23;20016;-86
2023/03/16 00:21:11;;;;;;;2.30;0.50;;;4.50;82.70;;;;;;6196728;23;20024;-86
2023/03/16 00:23:38;;;;;;;0.80;0.40;;;4.50;82.80;;;;;;6195786;23;20016;-86
2023/03/16 00:26:07;;;;;;;0.70;0.40;;;4.50;82.80;;;;;;6221187;23;20074;-87
2023/03/16 00:28:35;;;;;;;0.65;0.20;;;4.50;82.70;;;;;;6196064;23;20454;-86
2023/03/16 00:31:07;;;;;;;0.90;0.40;;;4.60;82.80;;;;;;6196199;23;20054;-86
2023/03/16 00:33:34;;;;;;;0.43;0.20;;;4.60;82.80;;;;;;6195737;23;20074;-87
2023/03/16 00:36:08;;;;;;;1.00;0.30;;;4.60;82.90;;;;;;6196409;23;20442;-86
2023/03/16 00:38:37;;;;;;;0.68;0.40;;;4.60;82.90;;;;;;6172863;23;20012;-86
2023/03/16 00:41:07;;;;;;;0.77;0.23;;;4.60;83.30;;;;;;6195525;23;20346;-86
2023/03/16 00:43:39;;;;;;;0.82;0.30;;;4.60;83.00;;;;;;6195829;23;20031;-83
2023/03/16 00:46:11;;;;;;;0.65;0.30;;;4.60;83.00;;;;;;6195333;23;20020;-83
2023/03/16 00:48:43;;;;;;;1.00;0.40;;;4.60;82.90;;;;;;6171193;23;20020;-82
2023/03/16 00:51:14;;;;;;;1.63;0.50;;;4.60;83.00;;;;;;6194938;23;20024;-82
2023/03/16 00:53:42;;;;;;;0.73;0.20;;;4.70;83.00;;;;;;6195405;23;20127;-82
2023/03/16 00:56:13;;;;;;;0.88;0.30;;;4.70;83.00;;;;;;6195519;23;20024;-83
2023/03/16 00:58:44;;;;;;;0.43;0.28;;;4.60;83.00;;;;;;6194732;23;20470;-83
2023/03/16 01:01:14;;;;;;;1.60;0.60;;;4.70;83.00;;;;;;6194830;23;20099;-83
2023/03/16 01:03:42;;;;;;;0.50;0.30;;;4.70;83.10;;;;;;6194894;23;20090;-83
2023/03/16 01:06:12;;;;;;;1.67;0.55;;;4.60;83.10;;;;;;6194867;23;20027;-82
2023/03/16 01:08:41;;;;;;;1.42;0.40;;;4.60;83.10;;;;;;6224146;22;20024;-83
2023/03/16 01:11:12;;;;;;;0.98;0.30;;;4.60;83.80;;;;;;6250053;22;20042;-83
2023/03/16 01:13:39;;;;;;;0.60;0.30;;;4.70;83.30;;;;;;6224962;22;20034;-83
2023/03/16 01:16:08;;;;;;;1.15;0.40;;;4.60;83.20;;;;;;6250033;22;20073;-83
2023/03/16 01:18:35;;;;;;;1.63;0.50;;;4.60;83.20;;;;;;6224567;22;20106;-83
2023/03/16 01:21:05;;;;;;;1.15;0.40;;;4.60;83.30;;;;;;6224859;22;20021;-83
2023/03/16 01:23:33;;;;;;;1.23;0.57;;;4.60;83.30;;;;;;6225299;22;20507;-83
2023/03/16 01:26:01;;;;;;;1.30;0.60;;;4.70;83.40;;;;;;6200150;22;20043;-83
2023/03/16 01:28:30;;;;;;;1.10;0.57;;;4.70;83.40;;;;;;6224691;22;20016;-83
2023/03/16 01:31:05;;;;;;;0.60;0.35;;;4.70;83.30;;;;;;6224725;22;20148;-83
2023/03/16 01:33:34;;;;;;;1.10;0.50;;;4.70;83.20;;;;;;6249846;22;20016;-83
2023/03/16 01:36:05;;;;;;;1.50;0.60;;;4.70;83.30;;;;;;6224926;22;20019;-83
2023/03/16 01:38:41;;;;;;;1.60;0.50;;;4.70;83.30;;;;;;6225857;22;20020;-83
2023/03/16 01:41:12;;;;;;;1.33;0.40;;;4.70;83.40;;;;;;6201126;22;20020;-83
2023/03/16 01:43:40;;;;;;;1.27;0.45;;;4.70;83.50;;;;;;6249641;22;20023;-83
2023/03/16 01:46:32;;;;;;;0.93;0.30;;;4.70;83.60;;;;;;6249787;22;20019;-83
2023/03/16 01:49:05;;;;;;;1.20;0.47;;;4.70;83.60;;;;;;6200436;22;20020;-83
2023/03/16 01:52:05;;;;;;;1.83;0.60;;;4.70;83.70;;;;;;6250068;22;20262;-83
2023/03/16 01:54:36;;;;;;;1.15;0.57;;;4.70;83.70;;;;;;6232972;22;20024;-83
2023/03/16 01:57:38;;;;;;;1.08;0.40;;;4.70;83.80;;;;;;6249944;22;20098;-83
2023/03/16 02:00:17;;;;;;;1.13;0.60;;;4.70;83.70;;;;;;6249836;22;20015;-83
2023/03/16 02:03:10;;;;;;;;;;;4.70;83.70;;;;;;6228394;22;20024;-83
2023/03/16 02:05:58;;;;;;;1.10;0.50;;;4.60;83.80;;;;;;6227463;22;19961;-83
2023/03/16 02:08:28;;;;;;;0.93;0.40;;;4.60;83.70;;;;;;6222901;23;20094;-83
2023/03/16 02:10:55;;;;;;;1.65;0.70;;;4.60;83.80;;;;;;6194082;23;20020;-83
2023/03/16 02:13:38;;;;;;;0.88;0.40;;;4.70;83.80;;;;;;6176823;23;20051;-83
2023/03/16 02:16:07;;;;;;;1.35;0.70;;;4.70;83.80;;;;;;6194199;23;20339;-83
2023/03/16 02:18:35;;;;;;;1.40;0.52;;;4.70;83.80;;;;;;6194899;23;20314;-83
2023/03/16 02:21:16;;;;;;;0.90;0.50;;;4.70;83.90;;;;;;6194255;23;20024;-83
2023/03/16 02:23:49;;;;;;;0.85;0.32;;;4.70;83.90;;;;;;6219759;23;20016;-87
2023/03/16 02:26:38;;;;;;;1.63;0.55;;;4.70;84.00;;;;;;6195097;23;20020;-87
2023/03/16 02:29:31;;;;;;;1.77;0.75;;;4.70;84.00;;;;;;6219679;23;20020;-87
2023/03/16 02:32:01;;;;;;;1.73;0.47;;;4.70;84.10;;;;;;6220707;23;20020;-87
2023/03/16 02:34:34;;;;;;;1.00;0.50;;;4.70;84.10;;;;;;6197715;23;20016;-87
2023/03/16 02:37:06;;;;;;;2.03;0.60;;;4.70;84.20;;;;;;6197511;23;20018;-87
2023/03/16 02:39:35;;;;;;;1.37;0.50;;;4.70;84.20;;;;;;6199290;23;20024;-86
2023/03/16 02:42:03;;;;;;;1.92;0.55;;;4.70;84.30;;;;;;6172091;23;20095;-87
2023/03/16 02:44:35;;;;;;;1.03;0.40;;;4.70;84.40;;;;;;6195873;23;20043;-87
2023/03/16 02:47:14;;;;;;;1.37;0.40;;;4.70;84.40;;;;;;6195427;23;20024;-87
2023/03/16 02:49:44;;;;;;;1.47;0.50;;;4.70;84.40;;;;;;6219528;23;20074;-86
2023/03/16 02:52:12;;;;;;;0.67;0.30;;;4.70;84.50;;;;;;6194822;23;20024;-87
2023/03/16 02:54:39;;;;;;;1.30;0.43;;;4.70;84.60;;;;;;6194730;23;20103;-87
2023/03/16 02:57:09;;;;;;;1.53;0.50;;;4.70;84.60;;;;;;6195128;23;20024;-86
2023/03/16 02:59:36;;;;;;;2.22;1.00;;;4.70;84.60;;;;;;6194963;23;20053;-86
2023/03/16 03:02:03;;;;;;;3.20;0.80;;;4.70;84.60;;;;;;6194967;23;20027;-86
2023/03/16 03:04:31;;;;;;;1.00;0.50;;;4.70;84.60;;;;;;6170266;23;20389;-87
2023/03/16 03:07:03;;;;;;;0.90;0.50;;;4.80;84.60;;;;;;6153868;22;20077;-86
2023/03/16 03:09:36;;;;;;;1.98;0.47;;;4.80;84.60;;;;;;6203994;22;20030;-86
2023/03/16 03:12:03;;;;;;;1.35;0.55;;;4.80;84.60;;;;;;6199407;22;20047;-83
2023/03/16 03:14:30;;;;;;;1.30;0.40;;;4.80;84.60;;;;;;6174687;22;20186;-83
2023/03/16 03:17:03;;;;;;;1.40;0.57;;;4.80;84.60;;;;;;6223687;22;20016;-83
2023/03/16 03:19:32;;;;;;;1.23;0.50;;;4.90;84.70;;;;;;6176431;22;20434;-83
2023/03/16 03:22:08;;;;;;;1.10;0.50;;;4.80;84.60;;;;;;6175628;22;20392;-83
2023/03/16 03:24:35;;;;;;;1.63;0.43;;;4.90;84.70;;;;;;6223770;22;20074;-83
2023/03/16 03:27:04;;;;;;;2.27;0.60;;;4.90;84.60;;;;;;6224359;22;20039;-83
2023/03/16 03:29:34;;;;;;;2.17;0.87;;;4.90;84.60;;;;;;6224564;22;20024;-83
2023/03/16 03:32:06;;;;;;;1.17;0.60;;;4.90;84.60;;;;;;6199038;22;20028;-83
2023/03/16 03:34:33;;;;;;;2.45;0.47;;;4.90;84.50;;;;;;6224014;22;20028;-83
2023/03/16 03:37:00;;;;;;;2.03;0.60;;;4.90;84.60;;;;;;6223787;22;20454;-83
2023/03/16 03:39:28;;;;;;;1.42;0.40;;;4.90;84.60;;;;;;6223958;22;20046;-83
2023/03/16 03:41:55;;;;;;;1.25;0.52;;;4.90;84.60;;;;;;6224073;22;20047;-84
2023/03/16 03:44:23;;;;;;;1.75;0.70;;;4.90;84.70;;;;;;6198925;22;20016;-83
2023/03/16 03:46:51;;;;;;;1.65;0.57;;;4.90;84.70;;;;;;6249108;22;20027;-83
2023/03/16 03:49:24;;;;;;;2.97;0.67;;;4.90;84.80;;;;;;6224847;22;20024;-82
2023/03/16 03:51:51;;;;;;;1.05;0.40;;;4.90;84.90;;;;;;6198854;22;20452;-83
2023/03/16 03:54:24;;;;;;;2.00;0.43;;;4.90;85.00;;;;;;6225087;22;20119;-83
2023/03/16 03:56:59;;;;;;;1.63;0.30;;;4.90;85.10;;;;;;6202653;22;20090;-83
2023/03/16 03:59:26;;;;;;;0.68;0.40;;;4.90;85.20;;;;;;6199238;22;20023;-83
2023/03/16 04:05:09;;;;;;;1.90;0.57;;;4.90;85.30;;;;;;6250617;22;20070;-83
2023/03/16 04:07:37;;;;;;;1.00;0.40;;;4.80;85.30;;;;;;6235017;23;20044;-83
2023/03/16 04:10:09;;;;;;;0.95;0.32;;;4.90;85.40;;;;;;6172751;23;20051;-83
2023/03/16 04:12:41;;;;;;;1.60;0.43;;;4.80;85.40;;;;;;6196457;23;20020;-83
2023/03/16 04:15:11;;;;;;;2.30;0.57;;;4.90;85.60;;;;;;6195882;23;20378;-83
2023/03/16 04:17:48;;;;;;;1.88;0.40;;;4.80;85.60;;;;;;6174511;23;20323;-84
2023/03/16 04:20:18;;;;;;;1.25;0.60;;;4.80;85.70;;;;;;6171288;23;20027;-84
2023/03/16 04:22:46;;;;;;;0.68;0.30;;;4.80;85.70;;;;;;6195484;23;20099;-84
2023/03/16 04:25:16;;;;;;;0.95;0.40;;;4.80;85.80;;;;;;6195588;23;20454;-87
2023/03/16 04:27:47;;;;;;;1.38;0.55;;;4.80;86.00;;;;;;6197591;23;20405;-88
2023/03/16 04:30:16;;;;;;;1.75;0.57;;;4.70;86.10;;;;;;6221916;23;20020;-87
2023/03/16 04:32:48;;;;;;;1.50;0.55;;;4.70;86.20;;;;;;6196810;23;20023;-84
2023/03/16 04:35:18;;;;;;;1.43;0.50;;;4.60;86.30;;;;;;6195854;23;20016;-83
2023/03/16 04:37:52;;;;;;;2.20;0.63;;;4.60;86.50;;;;;;6196351;23;20382;-83
2023/03/16 04:40:24;;;;;;;1.27;0.50;;;4.60;86.50;;;;;;6196319;23;20040;-84
2023/03/16 04:43:03;;;;;;;1.13;0.50;;;4.60;86.60;;;;;;6174424;23;20450;-83
2023/03/16 04:45:33;;;;;;;1.20;0.50;;;4.60;86.60;;;;;;6220017;23;20020;-84
2023/03/16 04:48:00;;;;;;;1.10;0.40;;;4.60;86.70;;;;;;6220019;23;20467;-84
2023/03/16 04:50:31;;;;;;;0.97;0.50;;;4.60;86.80;;;;;;6146662;23;20443;-84
2023/03/16 04:52:59;;;;;;;1.10;0.57;;;4.60;86.90;;;;;;6220011;23;20024;-84
2023/03/16 04:55:28;;;;;;;1.75;0.63;;;4.50;87.00;;;;;;6195782;23;20103;-84
2023/03/16 04:57:57;;;;;;;1.40;0.70;;;4.50;87.00;;;;;;6195009;23;20095;-84
2023/03/16 05:00:26;;;;;;;1.90;0.60;;;4.50;87.10;;;;;;6195368;23;20017;-83
2023/03/16 05:03:03;;;;;;;2.08;0.60;;;4.50;87.20;;;;;;6197290;23;20020;-84
2023/03/16 05:05:31;;;;;;;1.40;0.50;;;4.50;87.20;;;;;;6195292;23;20401;-84
2023/03/16 05:08:03;;;;;;;1.57;0.50;;;4.50;87.20;;;;;;6170392;23;20397;-83
2023/03/16 05:10:33;;;;;;;1.85;0.70;;;4.50;87.30;;;;;;6195402;23;20024;-84
2023/03/16 05:13:01;;;;;;;1.85;0.68;;;4.50;87.30;;;;;;6195414;23;20043;-83
2023/03/16 05:15:28;;;;;;;1.90;0.93;;;4.50;87.30;;;;;;6194798;23;20020;-84
2023/03/16 05:18:05;;;;;;;1.95;0.60;;;4.50;87.30;;;;;;6196696;23;20016;-83
2023/03/16 05:20:32;;;;;;;2.13;0.88;;;4.60;87.30;;;;;;6194785;23;20075;-84
2023/03/16 05:23:02;;;;;;;1.75;0.70;;;4.50;87.30;;;;;;6170951;23;20021;-84
2023/03/16 05:25:33;;;;;;;2.08;1.05;;;4.60;87.40;;;;;;6195353;23;20020;-83
2023/03/16 05:28:04;;;;;;;1.50;0.70;;;4.60;87.40;;;;;;6195668;23;20020;-87
2023/03/16 05:31:02;;;;;;;2.53;1.02;;;4.60;87.30;;;;;;6207017;23;20059;-88
2023/03/16 05:33:37;;;;;;;1.50;0.80;;;4.60;87.30;;;;;;6220547;23;20026;-88
2023/03/16 05:36:08;;;;;;;1.75;0.50;;;4.60;87.40;;;;;;6222301;23;20016;-88
2023/03/16 05:38:38;;;;;;;1.47;0.50;;;4.60;87.40;;;;;;6196461;23;20016;-87
2023/03/16 05:41:09;;;;;;;2.20;0.70;;;4.60;87.40;;;;;;6172331;23;20096;-88
2023/03/16 05:43:47;;;;;;;0.67;0.40;;;4.70;87.50;;;;;;6198306;23;20401;-88
2023/03/16 05:46:16;;;;;;;1.40;0.40;;;4.70;87.50;;;;;;6195667;23;20446;-87
2023/03/16 05:48:47;;;;;;;1.52;0.50;;;4.70;87.50;;;;;;6196933;23;20023;-87
2023/03/16 05:51:17;;;;;;;1.30;0.40;;;4.70;87.50;;;;;;6171841;23;20054;-87
2023/03/16 05:53:45;;;;;;;1.55;0.60;;;4.70;87.50;;;;;;6171306;23;20024;-87
2023/03/16 05:56:26;;;;;;;2.67;0.80;;;4.70;87.60;;;;;;6197398;23;20099;-87
2023/03/16 05:58:54;;;;;;;1.20;0.60;;;4.70;87.60;;;;;;6195619;23;20020;-87
2023/03/16 06:01:23;;;;;;;1.88;0.50;;;4.70;87.60;;;;;;6195782;23;20070;-88
2023/03/16 06:03:51;;;;;;;1.95;0.80;;;4.70;87.60;;;;;;6195518;23;20080;-87
2023/03/16 06:06:23;;;;;;;1.48;0.60;;;4.70;87.60;;;;;;6197124;22;20016;-87
2023/03/16 06:09:00;;;;;;;1.70;0.55;;;4.70;87.70;;;;;;6227350;22;20057;-88
2023/03/16 06:11:28;;;;;;;1.52;0.50;;;4.80;87.70;;;;;;6226049;22;20024;-87
2023/03/16 06:13:56;;;;;;;0.88;0.50;;;4.80;87.70;;;;;;6225578;22;20461;-88
2023/03/16 06:16:24;;;;;;;0.77;0.50;;;4.80;87.70;;;;;;6225834;22;20020;-87
2023/03/16 06:18:51;;;;;;;1.15;0.60;;;4.80;87.70;;;;;;6225819;22;20026;-87
2023/03/16 06:21:19;;;;;;;0.90;0.40;;;4.80;87.70;;;;;;6225430;22;20110;-87
2023/03/16 06:23:49;;;;;;;2.43;0.70;;;4.80;87.80;;;;;;6225838;22;20020;-87
2023/03/16 06:26:18;;;;;;;2.08;1.00;;;4.80;87.80;;;;;;6225830;22;20400;-88
2023/03/16 06:28:47;;;;;;;1.13;0.50;;;4.90;87.80;;;;;;6226237;22;20039;-88
2023/03/16 06:31:15;;;;;;;1.67;0.65;;;4.90;87.90;;;;;;6227433;22;20023;-89
2023/03/16 06:33:44;;;;;;;2.42;0.60;;;4.90;87.80;;;;;;6230742;22;20098;-88
2023/03/16 06:36:12;;;;;;;1.23;0.68;;;4.90;87.90;;;;;;6202689;22;20354;-88
2023/03/16 06:38:44;;;;;;;2.75;0.82;;;4.90;87.90;;;;;;6203855;22;20043;-88
2023/03/16 06:41:22;;;;;;;1.63;0.57;;;5.00;88.00;;;;;;6227475;22;20022;-88
2023/03/16 06:43:50;;;;;;;1.92;0.70;;;4.90;87.90;;;;;;6224439;22;20073;-85
2023/03/16 06:46:17;;;;;;;1.25;0.55;;;5.00;88.00;;;;;;6224204;22;20055;-85
2023/03/16 06:48:46;;;;;;;1.40;0.57;;;5.00;88.60;;;;;;6224346;22;20039;-85
2023/03/16 06:51:13;;;;;;;1.50;0.50;;;5.00;87.90;;;;;;6248851;22;20098;-85
2023/03/16 06:53:44;;;;;;;2.45;0.70;;;5.00;87.90;;;;;;6225128;22;20405;-84
2023/03/16 06:56:11;;;;;;;1.35;0.60;;;5.00;87.90;;;;;;6249206;22;20023;-85
2023/03/16 06:58:41;;;;;;;1.52;0.60;;;5.00;88.00;;;;;;6224923;22;20511;-85
2023/03/16 07:01:08;;;;;;;2.25;0.70;;;5.10;88.10;;;;;;6224465;22;20023;-85
2023/03/16 07:03:35;;;;;;;1.55;0.70;;;5.10;88.10;;;;;;6224951;22;20031;-85
2023/03/16 07:06:17;;;;;;;1.63;0.65;;;5.10;88.10;;;;;;6226349;22;20020;-85
2023/03/16 07:08:44;;;;;;;2.43;1.07;;;5.10;88.10;;;;;;6199646;22;20399;-84
2023/03/16 07:11:13;;;;;;;2.50;0.60;;;5.10;88.20;;;;;;6224051;22;20066;-84
2023/03/16 07:13:41;;;;;;;1.67;0.68;;;5.10;88.40;;;;;;6249797;22;20019;-84
2023/03/16 07:16:09;;;;;;;2.25;0.80;;;5.10;88.40;;;;;;6199473;22;20020;-85
2023/03/16 07:18:43;;;;;;;2.13;0.77;;;5.10;88.50;;;;;;6199105;22;20085;-84
2023/03/16 07:21:13;;;;;;;2.28;0.85;;;5.10;88.60;;;;;;6179591;22;20020;-89
2023/03/16 07:23:41;;;;;;;1.67;0.68;;;5.10;88.70;;;;;;6200369;22;20016;-85
2023/03/16 07:26:10;;;;;;;1.87;0.87;;;5.10;88.70;;;;;;6199538;22;20437;-84
2023/03/16 07:28:47;;;;;;;2.00;0.82;;;5.20;88.70;;;;;;6249532;22;20511;-87
2023/03/16 07:31:15;;;;;;;1.60;0.80;;;5.30;88.60;;;;;;6224709;22;20077;-88
2023/03/16 07:33:45;;;;;;;1.40;0.80;;;5.30;88.60;;;;;;6224663;22;20077;-87
2023/03/16 07:36:19;;;;;;;1.75;0.80;;;5.40;88.60;;;;;;6225554;22;20023;-85
2023/03/16 07:38:53;;;;;;;1.88;0.80;;;5.40;88.60;;;;;;6227195;22;20106;-86
2023/03/16 07:41:20;;;;;;;2.50;0.90;;;5.40;88.60;;;;;;6225927;22;20073;-85
2023/03/16 07:43:47;;;;;;;2.28;1.08;;;5.40;88.70;;;;;;6226176;22;20102;-85
2023/03/16 07:46:15;;;;;;;2.53;1.30;;;5.50;88.90;;;;;;6226555;22;20433;-88
2023/03/16 07:48:45;;;;;;;2.47;1.10;;;5.40;89.10;;;;;;6227063;22;20107;-89
2023/03/16 07:51:13;;;;;;;3.67;0.97;;;5.40;89.20;;;;;;6252217;22;20461;-88
2023/03/16 07:53:44;;;;;;;2.75;1.00;;;5.40;89.40;;;;;;6228391;22;20023;-88
2023/03/16 07:56:23;;;;;;;4.10;1.13;;;5.40;89.50;;;;;;6251335;22;20499;-85
2023/03/16 07:58:53;;;;;;;3.20;1.52;;;5.30;89.60;;;;;;6202211;22;20110;-85
2023/03/16 08:01:22;;;;;;;3.13;1.30;;;5.30;89.60;;;;;;6219677;23;20023;-85
2023/03/16 08:03:50;;;;;;;2.70;1.05;;;5.30;89.80;;;;;;6170083;23;20020;-85
2023/03/16 08:06:20;;;;;;;2.33;0.88;;;5.30;89.80;;;;;;6195227;23;20043;-91
2023/03/16 08:08:47;;;;;;;3.03;0.90;;;5.40;90.00;;;;;;6196306;23;20481;-90
2023/03/16 08:11:22;;;;;;;2.78;1.00;;;5.30;90.00;;;;;;6197262;23;20027;-89
2023/03/16 08:13:56;;;;;;;2.63;1.33;;;5.30;90.00;;;;;;6197358;23;20536;-89
2023/03/16 08:16:30;;;;;;;2.88;1.33;;;5.30;90.00;;;;;;6197102;23;20020;-89
2023/03/16 08:18:58;;;;;;;2.40;0.93;;;5.40;90.10;;;;;;6171512;23;20013;-89
2023/03/16 08:21:27;;;;;;;1.73;0.90;;;5.40;90.10;;;;;;6195989;23;20027;-89
2023/03/16 08:24:00;;;;;;;3.38;0.98;;;5.40;90.10;;;;;;6172682;23;20439;-90
2023/03/16 08:26:28;;;;;;;2.90;1.20;;;5.40;90.10;;;;;;6147568;23;20016;-90
2023/03/16 08:29:01;;;;;;;3.38;1.17;;;5.50;90.10;;;;;;6194703;23;20439;-85
2023/03/16 08:31:34;;;;;;;2.72;1.10;;;5.50;90.10;;;;;;6194516;23;20024;-85
2023/03/16 08:34:11;;;;;;;2.80;1.08;;;5.50;90.10;;;;;;6196079;23;20504;-84
2023/03/16 08:36:42;;;;;;;3.55;1.20;;;5.60;90.10;;;;;;6194744;23;20027;-85
2023/03/16 08:39:12;;;;;;;2.58;0.90;;;5.70;90.10;;;;;;6184288;23;20095;-86
2023/03/16 08:41:42;;;;;;;2.63;0.88;;;5.80;90.00;;;;;;6245343;23;20022;-86
2023/03/16 08:44:24;;;;;;;3.65;0.77;;;5.80;90.00;;;;;;6222886;23;20016;-85
2023/03/16 08:46:51;;;;;;;1.70;0.80;;;6.00;90.00;;;;;;6245420;23;20488;-84
2023/03/16 08:49:20;;;;;;;2.50;1.00;;;6.00;89.90;;;;;;6220135;23;20446;-83
2023/03/16 08:51:56;;;;;;;2.63;0.93;;;6.20;89.80;;;;;;6221560;23;20074;-84
2023/03/16 08:54:23;;;;;;;3.47;1.20;;;6.30;89.70;;;;;;6171475;23;20026;-84
2023/03/16 08:56:50;;;;;;;2.47;0.90;;;6.40;89.60;;;;;;6195432;23;20109;-84
2023/03/16 08:59:17;;;;;;;2.50;0.90;;;6.40;89.60;;;;;;6196059;23;20119;-84
2023/03/16 09:01:55;;;;;;;2.22;1.00;;;6.50;89.60;;;;;;6200582;23;20074;-85
2023/03/16 09:04:22;;;;;;;2.30;1.00;;;6.50;89.60;;;;;;6220201;23;20027;-86
2023/03/16 09:06:50;;;;;;;2.10;0.80;;;6.60;89.70;;;;;;6194552;23;20028;-87
2023/03/16 09:09:34;;;;;;;1.52;0.60;;;6.60;89.70;;;;;;6199955;23;20024;-89
2023/03/16 09:12:03;;;;;;;4.65;1.20;;;6.60;89.70;;;;;;6171643;23;20024;-85
2023/03/16 09:14:30;;;;;;;1.23;0.68;;;6.60;89.70;;;;;;6194487;23;20016;-84
2023/03/16 09:16:59;;;;;;;2.60;1.08;;;6.60;89.80;;;;;;6195149;23;20519;-85
2023/03/16 09:19:27;;;;;;;2.45;0.90;;;6.60;89.80;;;;;;6194501;23;20066;-84
2023/03/16 09:22:06;;;;;;;2.95;0.90;;;6.70;89.90;;;;;;6197751;23;20079;-84
2023/03/16 09:24:33;;;;;;;2.65;1.08;;;6.70;89.90;;;;;;6195255;23;20016;-89
2023/03/16 09:27:00;;;;;;;1.85;0.80;;;6.70;89.90;;;;;;6146303;23;20023;-82
2023/03/16 09:29:28;;;;;;;2.42;1.08;;;6.80;89.80;;;;;;6170268;23;20047;-84
2023/03/16 09:31:55;;;;;;;2.60;1.33;;;6.90;89.80;;;;;;6170078;23;20409;-83
2023/03/16 09:34:22;;;;;;;2.00;0.90;;;6.90;89.80;;;;;;6170308;23;20450;-85
2023/03/16 09:36:49;;;;;;;2.28;0.80;;;7.00;89.70;;;;;;6194736;23;20067;-84
2023/03/16 09:39:16;;;;;;;1.90;0.75;;;7.00;89.60;;;;;;6145779;23;20362;-85
2023/03/16 09:42:03;;;;;;;2.33;0.90;;;7.10;89.60;;;;;;6146182;23;20027;-81
2023/03/16 09:44:39;;;;;;;2.67;0.73;;;7.20;89.50;;;;;;6219510;23;20020;-82
2023/03/16 09:47:10;;;;;;;4.05;1.80;;;7.20;89.50;;;;;;6194391;23;20024;-83
2023/03/16 09:49:44;;;;;;;2.33;0.80;;;7.20;89.40;;;;;;6193302;23;20552;-83
2023/03/16 09:52:40;;;;;;;2.35;1.00;;;7.30;89.40;;;;;;6217349;23;20024;-83
2023/03/16 09:55:30;;;;;;;2.53;0.70;;;7.30;89.30;;;;;;6218530;23;20024;-84
2023/03/16 09:58:00;;;;;;;1.38;0.50;;;7.30;89.30;;;;;;6194415;23;20024;-83
2023/03/16 10:00:32;;;;;;;2.15;0.85;;;7.30;89.40;;;;;;6169416;23;20550;-84
2023/03/16 10:03:20;;;;;;;3.05;0.80;;;7.40;89.40;;;;;;6194295;23;20016;-84
2023/03/16 10:05:53;;;;;;;1.70;0.90;;;7.40;89.30;;;;;;6219164;23;20040;-83
2023/03/16 10:08:23;;;;;;;2.63;0.63;;;7.40;89.30;;;;;;6218958;23;20020;-83
2023/03/16 10:11:12;;;;;;;1.50;0.50;;;7.50;89.40;;;;;;6169660;23;20020;-83
2023/03/16 10:13:47;;;;;;;2.55;0.60;;;7.50;89.40;;;;;;6219400;23;20027;-83
2023/03/16 10:16:39;;;;;;;3.08;1.02;;;7.60;89.40;;;;;;6194394;23;20476;-88
2023/03/16 10:19:13;;;;;;;1.63;0.70;;;7.60;89.20;;;;;;6194570;23;20094;-87
2023/03/16 10:21:42;;;;;;;2.42;0.82;;;7.70;89.10;;;;;;6219842;23;20046;-88
2023/03/16 10:24:47;;;;;;;2.67;0.73;;;7.80;89.00;;;;;;6195525;23;20024;-88
2023/03/16 10:27:21;;;;;;;1.80;0.90;;;7.90;88.90;;;;;;6195713;23;20028;-89
2023/03/16 10:29:49;;;;;;;3.03;0.82;;;8.00;88.70;;;;;;6219497;23;20122;-84
2023/03/16 10:32:18;;;;;;;1.95;0.60;;;8.20;89.10;;;;;;6194188;23;20023;-84
2023/03/16 10:34:59;;;;;;;1.88;0.73;;;8.30;88.20;;;;;;6169675;23;20024;-84
2023/03/16 10:37:30;;;;;;;1.30;0.60;;;8.50;88.10;;;;;;6219216;23;20030;-84
2023/03/16 10:40:00;;;;;;;1.73;0.85;;;8.60;87.90;;;;;;6218908;23;20030;-84
2023/03/16 10:42:30;;;;;;;1.63;0.77;;;8.70;87.60;;;;;;6194404;23;20027;-84
2023/03/16 10:45:00;;;;;;;1.77;0.70;;;8.90;87.40;;;;;;6219686;23;20022;-84
2023/03/16 10:47:34;;;;;;;1.90;0.70;;;9.00;87.10;;;;;;6195153;23;20032;-84
2023/03/16 10:50:19;;;;;;;1.70;0.90;;;9.10;87.00;;;;;;6218525;23;20026;-83
2023/03/16 10:52:48;;;;;;;2.00;0.80;;;9.30;86.70;;;;;;6170133;23;20024;-83
2023/03/16 10:55:27;;;;;;;3.30;1.17;;;9.30;86.60;;;;;;6194153;23;20386;-83
2023/03/16 10:57:55;;;;;;;1.83;0.70;;;9.40;86.30;;;;;;6194015;23;20039;-84
2023/03/16 11:00:29;;;;;;;1.70;0.60;;;9.50;86.20;;;;;;6193767;23;20030;-83
2023/03/16 11:02:58;;;;;;;1.35;0.65;;;9.50;86.10;;;;;;6218717;23;20127;-84
2023/03/16 11:05:31;;;;;;;2.15;0.57;;;9.60;86.20;;;;;;6194280;23;20091;-84
2023/03/16 11:07:58;;;;;;;;;;;9.60;86.20;;;;;;6214302;22;20015;-84
2023/03/16 11:10:32;;;;;;;2.38;0.88;;;9.70;86.10;;;;;;6224006;22;19915;-85
2023/03/16 11:13:19;;;;;;;1.50;0.60;;;9.80;85.80;;;;;;6227587;22;20520;-84
2023/03/16 11:15:56;;;;;;;2.80;0.90;;;9.90;85.50;;;;;;6226760;22;20026;-85
2023/03/16 11:18:42;;;;;;;1.90;1.05;;;10.00;84.90;;;;;;6251948;22;20023;-84
2023/03/16 11:21:27;;;;;;;1.90;0.90;;;10.10;84.90;;;;;;6226082;22;20020;-83
2023/03/16 11:23:55;;;;;;;1.88;0.63;;;10.20;84.70;;;;;;6226176;22;20026;-83
2023/03/16 11:26:38;;;;;;;3.63;1.10;;;10.20;84.70;;;;;;6225900;22;20024;-83
2023/03/16 11:29:25;;;;;;;;;;;10.30;84.40;;;;;;6227038;22;20019;-85
2023/03/16 11:32:26;;;;;;;1.75;0.80;;;10.30;84.50;;;;;;6250893;22;20253;-83
2023/03/16 11:34:56;;;;;;;2.03;0.95;;;10.40;84.40;;;;;;6226623;22;20024;-84
2023/03/16 11:37:32;;;;;;;3.58;0.80;;;10.40;84.40;;;;;;6201975;22;20101;-84
2023/03/16 11:40:13;;;;;;;2.25;0.90;;;10.50;84.30;;;;;;6250813;22;20019;-83
2023/03/16 11:43:01;;;;;;;2.67;1.05;;;10.50;84.30;;;;;;6250806;22;20089;-84
2023/03/16 11:45:44;;;;;;;2.38;0.90;;;10.50;83.70;;;;;;6251057;22;20438;-83
2023/03/16 11:48:21;;;;;;;4.03;1.38;;;10.50;83.80;;;;;;6250887;22;20024;-83
2023/03/16 11:51:03;;;;;;;2.55;1.20;;;10.50;83.60;;;;;;6251055;22;20392;-87
2023/03/16 11:53:37;;;;;;;3.42;1.10;;;10.60;83.60;;;;;;6251296;22;20051;-85
2023/03/16 11:56:26;;;;;;;2.88;1.48;;;10.60;83.50;;;;;;6225667;22;20028;-83
2023/03/16 11:58:55;;;;;;;3.03;1.05;;;10.70;83.50;;;;;;6227229;22;20012;-89
2023/03/16 12:01:47;;;;;;;3.17;1.08;;;10.70;83.90;;;;;;6227241;22;20089;-84
2023/03/16 12:04:36;;;;;;;2.67;0.80;;;10.70;83.00;;;;;;6228174;22;20023;-84
2023/03/16 12:07:14;;;;;;;2.38;0.68;;;10.70;83.00;;;;;;6244618;23;20465;-84
2023/03/16 12:10:12;;;;;;;2.08;0.70;;;10.80;82.90;;;;;;6220360;23;20020;-84
2023/03/16 12:13:00;;;;;;;2.03;0.70;;;10.90;82.80;;;;;;6220426;23;20024;-85
2023/03/16 12:15:46;;;;;;;1.77;0.90;;;10.90;82.60;;;;;;6195922;23;20020;-85
2023/03/16 12:18:45;;;;;;;2.95;1.10;;;11.10;82.30;;;;;;6220090;23;20107;-84
2023/03/16 12:21:20;;;;;;;2.13;0.70;;;11.10;82.30;;;;;;6195263;23;20115;-84
2023/03/16 12:23:54;;;;;;;3.60;0.77;;;11.20;82.20;;;;;;6220134;23;20016;-84
2023/03/16 12:26:25;;;;;;;1.88;0.82;;;11.30;82.00;;;;;;6195263;23;20024;-84
2023/03/16 12:28:54;;;;;;;2.28;0.77;;;11.40;81.80;;;;;;6195260;23;20024;-83
2023/03/16 12:31:34;;;;;;;2.00;0.68;;;11.40;81.60;;;;;;6146664;23;20354;-84
2023/03/16 12:34:26;;;;;;;2.20;0.80;;;11.50;81.40;;;;;;6192802;23;20020;-84
2023/03/16 12:37:34;;;;;;;2.17;0.80;;;11.60;81.00;;;;;;6194318;23;20030;-83
2023/03/16 12:40:08;;;;;;;2.00;0.50;;;11.60;80.90;;;;;;6180024;23;20016;-83
2023/03/16 12:42:41;;;;;;;1.27;0.52;;;11.70;81.00;;;;;;6219608;23;20020;-86
2023/03/16 12:45:30;;;;;;;2.30;0.80;;;11.70;80.60;;;;;;6219295;23;20016;-86
2023/03/16 12:48:23;;;;;;;2.65;0.80;;;11.70;81.10;;;;;;6219377;23;20012;-86
2023/03/16 12:50:57;;;;;;;2.33;0.93;;;11.60;80.20;;;;;;6219581;23;20035;-89
2023/03/16 12:53:44;;;;;;;2.15;1.13;;;11.50;80.40;;;;;;6219945;23;20103;-88
2023/03/16 12:56:16;;;;;;;1.75;0.70;;;11.50;80.40;;;;;;6219214;23;20043;-87
2023/03/16 12:58:49;;;;;;;2.58;0.80;;;11.50;80.50;;;;;;6196482;23;20028;-89
2023/03/16 13:01:23;;;;;;;2.45;0.90;;;11.40;80.40;;;;;;6173034;23;20024;-88
2023/03/16 13:03:59;;;;;;;2.80;0.90;;;11.40;80.10;;;;;;6197993;23;20020;-87
2023/03/16 13:06:32;;;;;;;4.50;0.93;;;11.50;80.30;;;;;;6195642;23;20035;-89
2023/03/16 13:09:06;;;;;;;2.10;0.70;;;11.50;80.20;;;;;;6197568;23;20022;-87
2023/03/16 13:11:48;;;;;;;2.25;0.70;;;11.40;80.00;;;;;;6195354;23;20462;-86
2023/03/16 13:14:40;;;;;;;1.92;1.13;;;11.40;79.90;;;;;;6172929;23;20024;-87
2023/03/16 13:17:16;;;;;;;1.70;0.70;;;11.40;79.90;;;;;;6194711;23;20020;-85
2023/03/16 13:19:56;;;;;;;2.05;0.50;;;11.40;79.80;;;;;;6194681;23;20016;-85
2023/03/16 13:22:46;;;;;;;2.03;0.60;;;11.40;79.80;;;;;;6197162;23;20024;-85
2023/03/16 13:25:40;;;;;;;2.58;0.63;;;11.40;79.60;;;;;;6194280;23;20393;-84
2023/03/16 13:28:16;;;;;;;5.05;0.80;;;11.40;79.50;;;;;;6195577;23;20094;-90
2023/03/16 13:30:47;;;;;;;1.90;0.80;;;11.40;79.10;;;;;;6221703;23;20022;-89